Terminal Aerodrome Forecast
Issued by NWS Jackson, KY

Home | Current Version | Previous Version | Text Only | Print | Product List | Glossary On
Versions: 1 2 3 4 5 6 7 8 9 10 11 12 13 14 15 16 17 18 19
000
FTUS43 KJKL 232100 AAA
TAFJKL
TAF AMD
KJKL 232147Z 2322/2418 VRB03KT 2SM RA BR OVC004
     FM240200 VRB03KT 3SM -RASN OVC004
     FM240800 33004KT 2SM -SN BR OVC003
     FM241200 30005KT P6SM BKN015
     FM241400 29005KT P6SM BKN025
     FM241500 28005KT P6SM SCT050=

USA.gov is the U.S. government's official web portal to all federal, state and local government web resources and services.